Hlavní strana
METAR-TAF:

METAR-TAF

Letiště :

Ringkøbing-Skjern, Dánsko

zeměpisná šířka: 56-00N, zeměpisná délka: 008-21E, výška: 5 m

Aktuální stav počasí

Zpráva byla vytvořena před 6 hodinami a 14 minutami, v 14:50 UTC
Jihovýchodní vítr 8 kt
Teplota 5°C
Vlhkost vzduchu 100%
Tlak 996 hPa
Viditelnost 10 km a více
Polojasno ve výšce 1200 ft

METAR: EKVJ 121450Z 13008KT 9999 SCT012 05/05 Q0996

Čas: 22:04 (21:04 UTC)

Předpověď počasí

Zpráva byla vytvořena před 9 hodinami a 13 minutami, v 11:51 UTC
Předpověď platná od 12 v 12 UTC do 12 v 16 UTC
Jihojihovýchodní vítr 12 kt
Viditelnost 10 km a více
Polojasno ve výšce 1500 ft
Oblačno až skoro zataženo ve výšce 3000 ft
Dočasný
od 12 v 12 UTC do 12 v 16 UTC
Jižní vítr 15 kt s nárazy do 25 kt
Oblačno až skoro zataženo ve výšce 800 ft
Polojasno ve výšce 2000 ft, Cumulonimbus.
dešťové přeháňky

TAF: EKVJ 121151Z 1212/1216 16012KT 9999 SCT015 BKN030 TEMPO 1212/1216 18015G25KT SHRA BKN008 SCT020CB

Stav a předpovědi počasí z více než 4 000 letišť (zprávy METAR a TAF).

Červené a žluté tečky na mapě představují dostupné meteorologické stanice.

Když kurzor umístíte na tečku, zobrazí se název stanice.

Pak kliknutím zobrazíte stav a předpověď počasí.

Chcete-li změnit mapu, kliknutím na zelené tlačítko se znaménkem +mapu přiblížíte, kliknutím na zelené tlačítko se znaménkem – mapu oddálíte a kliknutím na zelené šipky přejdete na sousední mapy.


METAR-TAF: